Mérida, México

2:29 AM CST en Noviembre 29, 2014 (GMT -0600)
Pensiones | Change Station
CLOSE
Current Station
Estación meteorológica personal
Location: Merida, YUCATN
Altura: 30 ft
Estaciones meteorológicas cercanas

Alt 30 ft 20.99 °N, 89.65 °W | Updated 47 seconds ago

Clear
Despejado
67.8 ° F
Sensación térmica 67.8 ° F
N
0.0
Viento Variable Viento desde Este
Gusts 0.0 mph

Hoy
Alta -- | Baja -- ° F
--% Posibilidad de precipitaciones
Ayer
Alta -- | Baja -- ° F
Precip. -- pul
6:17 AM 5:16 PM
Creciente, 49% visible
Presión 30.14 pul
Visibilidad 7.0 Millas
Nubes Despejado
Punto de rocío 58 ° F
Humedad 70%
Precipitaciones 0.00 pul
Espesor de la nieve No disponible.
UV 0 de una escala de 12
Polen No disponible.
Calidad del aire No disponible.
Flu Activity No disponible.
METAR MMMD 290744Z 07004KT 7SM SKC 17/15 A3014

More Conditions Fewer Conditions

Presión 30.14 pul
Visibilidad 7.0 Millas
Nubes Despejado
Punto de rocío 58 ° F
Humedad 70%
Precipitaciones 0.00 pul
Espesor de la nieve No disponible.
UV 0 de una escala de 12
Polen No disponible.
Calidad del aire No disponible.
Flu Activity No disponible.
METAR MMMD 290744Z 07004KT 7SM SKC 17/15 A3014

More Conditions Fewer Conditions

10-Day Weather Forecast

Almanac

Astronomía

Nov. 29, 2014 Salida Puesta
Hora real
Crepúsculo civil
Crepúsculo náutico
Crepúsculo astronómico
Luna
Horas de luz
Horas de luz
Tomorrow will be .
, % of the Moon is Illuminated

Extremos de hoy

Máximos del país Bajas del país

Community

WunderPhotos

Upload Photos

1,774,432 ¡fotos cargadas!

WunderBlogs® & News

Nearby

Calidad del aire

  Calidad del aire Índice AQ Contaminante
Not available.

Grosos de nieve

Estación Profundido Altura

Actividad de terremotos

Ciudad Distance Mag. Tiempo y dato
Magnitud mínima muestra es 2,5.

Temperaturas de aguas costeras

Lugar Temperatura

Estaciones meteorológicas cercanas